sensor_id;sensor_type;location;lat;lon;timestamp;pressure;altitude;pressure_sealevel;temperature;humidity
59789;BME280;47353;51.614;5.530;2023-05-10T21:00:13;101318.34;;;11.85;100.00
59789;BME280;47353;51.614;5.530;2023-05-10T21:02:43;101321.69;;;11.87;100.00
59789;BME280;47353;51.614;5.530;2023-05-10T21:05:09;101320.56;;;11.88;100.00
59789;BME280;47353;51.614;5.530;2023-05-10T21:07:34;101321.41;;;11.88;100.00
59789;BME280;47353;51.614;5.530;2023-05-10T21:10:00;101325.84;;;11.89;100.00
59789;BME280;47353;51.614;5.530;2023-05-10T21:12:25;101323.34;;;11.93;100.00
59789;BME280;47353;51.614;5.530;2023-05-10T21:14:51;101326.41;;;11.91;100.00
59789;BME280;47353;51.614;5.530;2023-05-10T21:17:16;101320.84;;;11.91;100.00
59789;BME280;47353;51.614;5.530;2023-05-10T21:19:41;101320.00;;;11.91;100.00
59789;BME280;47353;51.614;5.530;2023-05-10T21:22:07;101321.41;;;11.88;100.00
59789;BME280;47353;51.614;5.530;2023-05-10T21:24:32;101326.69;;;11.90;100.00
59789;BME280;47353;51.614;5.530;2023-05-10T21:26:59;101325.84;;;11.94;100.00
59789;BME280;47353;51.614;5.530;2023-05-10T21:29:25;101329.19;;;11.96;100.00
59789;BME280;47353;51.614;5.530;2023-05-10T21:31:51;101327.25;;;12.02;100.00
59789;BME280;47353;51.614;5.530;2023-05-10T21:34:17;101332.81;;;12.02;100.00
59789;BME280;47353;51.614;5.530;2023-05-10T21:36:42;101329.75;;;12.03;100.00
59789;BME280;47353;51.614;5.530;2023-05-10T21:39:08;101333.38;;;12.04;100.00
59789;BME280;47353;51.614;5.530;2023-05-10T21:41:33;101329.75;;;12.03;100.00
59789;BME280;47353;51.614;5.530;2023-05-10T21:43:58;101335.56;;;12.02;100.00
59789;BME280;47353;51.614;5.530;2023-05-10T21:46:24;101330.31;;;12.00;100.00
59789;BME280;47353;51.614;5.530;2023-05-10T21:48:49;101325.88;;;11.99;100.00
59789;BME280;47353;51.614;5.530;2023-05-10T21:51:15;101330.56;;;11.99;100.00
59789;BME280;47353;51.614;5.530;2023-05-10T21:53:40;101328.63;;;11.94;100.00
59789;BME280;47353;51.614;5.530;2023-05-10T21:56:06;101328.63;;;11.94;100.00
59789;BME280;47353;51.614;5.530;2023-05-10T21:58:31;101332.78;;;11.92;100.00
59789;BME280;47353;51.614;5.530;2023-05-10T22:00:57;101327.25;;;11.92;100.00
59789;BME280;47353;51.614;5.530;2023-05-10T22:03:22;101326.69;;;11.90;100.00
59789;BME280;47353;51.614;5.530;2023-05-10T22:05:48;101331.66;;;11.88;100.00
59789;BME280;47353;51.614;5.530;2023-05-10T22:08:13;101326.09;;;11.88;100.00
59789;BME280;47353;51.614;5.530;2023-05-10T22:10:39;101326.13;;;11.83;100.00
59789;BME280;47353;51.614;5.530;2023-05-10T22:13:04;101331.38;;;11.79;100.00
59789;BME280;47353;51.614;5.530;2023-05-10T22:15:29;101329.16;;;11.76;100.00
59789;BME280;47353;51.614;5.530;2023-05-10T22:17:56;101331.06;;;11.75;100.00
59789;BME280;47353;51.614;5.530;2023-05-10T22:20:21;101333.56;;;11.77;100.00
59789;BME280;47353;51.614;5.530;2023-05-10T22:22:47;101340.25;;;11.76;100.00
59789;BME280;47353;51.614;5.530;2023-05-10T22:25:12;101337.75;;;11.74;100.00
59789;BME280;47353;51.614;5.530;2023-05-10T22:27:38;101336.63;;;11.75;100.00
59789;BME280;47353;51.614;5.530;2023-05-10T22:30:05;101338.59;;;11.75;100.00
59789;BME280;47353;51.614;5.530;2023-05-10T22:32:31;101335.53;;;11.77;100.00
59789;BME280;47353;51.614;5.530;2023-05-10T22:34:57;101332.75;;;11.77;100.00
59789;BME280;47353;51.614;5.530;2023-05-10T22:37:22;101335.53;;;11.77;100.00
59789;BME280;47353;51.614;5.530;2023-05-10T22:39:48;101334.41;;;11.72;100.00
59789;BME280;47353;51.614;5.530;2023-05-10T22:42:14;101335.25;;;11.73;100.00
59789;BME280;47353;51.614;5.530;2023-05-10T22:44:40;101344.41;;;11.73;100.00
59789;BME280;47353;51.614;5.530;2023-05-10T22:47:05;101337.13;;;11.67;100.00
59789;BME280;47353;51.614;5.530;2023-05-10T22:49:32;101347.44;;;11.72;100.00
59789;BME280;47353;51.614;5.530;2023-05-10T22:51:57;101345.75;;;11.71;100.00
59789;BME280;47353;51.614;5.530;2023-05-10T22:54:23;101343.00;;;11.71;100.00
59789;BME280;47353;51.614;5.530;2023-05-10T22:56:48;101347.16;;;11.68;100.00
59789;BME280;47353;51.614;5.530;2023-05-10T22:59:13;101348.81;;;11.69;100.00
59789;BME280;47353;51.614;5.530;2023-05-10T23:01:39;101344.66;;;11.67;100.00
59789;BME280;47353;51.614;5.530;2023-05-10T23:04:04;101338.00;;;11.68;100.00
59789;BME280;47353;51.614;5.530;2023-05-10T23:06:31;101344.38;;;11.68;100.00
59789;BME280;47353;51.614;5.530;2023-05-10T23:08:57;101347.41;;;11.67;100.00
59789;BME280;47353;51.614;5.530;2023-05-10T23:11:23;101344.06;;;11.65;100.00
59789;BME280;47353;51.614;5.530;2023-05-10T23:13:48;101350.47;;;11.65;100.00
59789;BME280;47353;51.614;5.530;2023-05-10T23:16:15;101343.50;;;11.63;100.00
59789;BME280;47353;51.614;5.530;2023-05-10T23:18:40;101342.69;;;11.62;100.00
59789;BME280;47353;51.614;5.530;2023-05-10T23:21:06;101341.25;;;11.60;100.00
59789;BME280;47353;51.614;5.530;2023-05-10T23:23:31;101332.09;;;11.54;100.00
59789;BME280;47353;51.614;5.530;2023-05-10T23:25:58;101342.94;;;11.61;100.00
59789;BME280;47353;51.614;5.530;2023-05-10T23:28:24;101349.28;;;11.61;100.00
59789;BME280;47353;51.614;5.530;2023-05-10T23:30:56;101350.13;;;11.62;100.00
59789;BME280;47353;51.614;5.530;2023-05-10T23:33:22;101350.41;;;11.60;100.00
59789;BME280;47353;51.614;5.530;2023-05-10T23:35:48;101341.25;;;11.60;100.00
59789;BME280;47353;51.614;5.530;2023-05-10T23:38:13;101341.25;;;11.60;100.00
59789;BME280;47353;51.614;5.530;2023-05-10T23:40:38;101352.91;;;11.62;100.00
59789;BME280;47353;51.614;5.530;2023-05-10T23:43:04;101353.19;;;11.60;100.00
59789;BME280;47353;51.614;5.530;2023-05-10T23:45:29;101349.28;;;11.61;100.00
59789;BME280;47353;51.614;5.530;2023-05-10T23:47:55;101353.19;;;11.60;100.00
59789;BME280;47353;51.614;5.530;2023-05-10T23:50:20;101344.28;;;11.58;100.00
59789;BME280;47353;51.614;5.530;2023-05-10T23:52:46;101348.41;;;11.51;100.00
59789;BME280;47353;51.614;5.530;2023-05-10T23:55:11;101346.22;;;11.53;100.00
59789;BME280;47353;51.614;5.530;2023-05-10T23:57:37;101343.41;;;11.48;100.00
